LFPM 260530Z AUTO 36004KT CAVOK 05/03 Q1033

Les avions qui composent notre flotte

Avion Robin DR400-120

Avion école

F-BVMQ
   * tarif promotionnel appliqué pendant la formation des élèves non brevetés


F-BVMQ Planche